createdAt,value
2023-07-17T00:00:06.189Z,23.24
2023-07-17T00:02:32.732Z,23.22
2023-07-17T00:04:59.220Z,23.22
2023-07-17T00:07:25.618Z,23.21
2023-07-17T00:09:52.019Z,23.20
2023-07-17T00:12:18.480Z,23.19
2023-07-17T00:14:44.893Z,23.19
2023-07-17T00:17:11.464Z,23.18
2023-07-17T00:19:41.068Z,23.17
2023-07-17T00:22:08.187Z,23.16
2023-07-17T00:24:35.013Z,23.15
2023-07-17T00:27:02.619Z,23.15
2023-07-17T00:29:32.136Z,23.14
2023-07-17T00:31:58.617Z,23.13
2023-07-17T00:34:25.429Z,23.13
2023-07-17T00:36:52.759Z,23.12
2023-07-17T00:39:20.364Z,23.11
2023-07-17T00:41:50.144Z,23.10
2023-07-17T00:44:16.810Z,23.10
2023-07-17T00:46:44.823Z,23.09
2023-07-17T00:49:11.969Z,23.07
2023-07-17T00:51:40.693Z,23.07
2023-07-17T00:54:09.214Z,23.07
2023-07-17T00:56:36.128Z,23.05
2023-07-17T00:59:04.220Z,23.05
2023-07-17T01:01:30.828Z,23.03
2023-07-17T01:03:58.944Z,23.04
2023-07-17T01:06:28.366Z,23.02
2023-07-17T01:08:55.419Z,23.01
2023-07-17T01:11:21.974Z,23.00
2023-07-17T01:13:50.406Z,22.99
2023-07-17T01:16:16.937Z,22.99
2023-07-17T01:18:44.014Z,22.98
2023-07-17T01:21:13.556Z,22.97
2023-07-17T01:23:40.034Z,22.97
2023-07-17T01:26:17.139Z,22.96
2023-07-17T01:28:44.703Z,22.96
2023-07-17T01:31:12.068Z,22.94
2023-07-17T01:33:39.341Z,22.93
2023-07-17T01:36:07.288Z,22.93
2023-07-17T01:38:34.734Z,22.92
2023-07-17T01:41:01.695Z,22.91
2023-07-17T01:43:28.253Z,22.89
2023-07-17T01:45:55.121Z,22.90
2023-07-17T01:48:21.672Z,22.89
2023-07-17T01:50:48.493Z,22.87
2023-07-17T01:53:20.222Z,22.86
2023-07-17T01:55:47.329Z,22.85
2023-07-17T01:58:14.031Z,22.83
2023-07-17T02:00:40.492Z,22.84
2023-07-17T02:03:06.894Z,22.83
2023-07-17T02:05:33.469Z,22.80
2023-07-17T02:07:59.927Z,22.79
2023-07-17T02:10:26.362Z,22.79
2023-07-17T02:12:52.840Z,22.79
2023-07-17T02:15:19.313Z,22.76
2023-07-17T02:17:45.764Z,22.75
2023-07-17T02:20:14.346Z,22.75
2023-07-17T02:22:41.660Z,22.73
2023-07-17T02:25:08.922Z,22.73
2023-07-17T02:27:36.190Z,22.72
2023-07-17T02:30:04.393Z,22.70
2023-07-17T02:32:32.028Z,22.70
2023-07-17T02:34:58.574Z,22.70
2023-07-17T02:37:25.233Z,22.69
2023-07-17T02:39:52.375Z,22.67
2023-07-17T02:42:19.075Z,22.66
2023-07-17T02:44:46.273Z,22.65
2023-07-17T02:47:12.795Z,22.64
2023-07-17T02:49:39.769Z,22.63
2023-07-17T02:52:07.422Z,22.63
2023-07-17T02:54:34.294Z,22.61
2023-07-17T02:57:00.810Z,22.60
2023-07-17T02:59:27.331Z,22.61
2023-07-17T03:01:53.837Z,22.60
2023-07-17T03:04:20.270Z,22.58
2023-07-17T03:06:46.744Z,22.57
2023-07-17T03:09:13.182Z,22.57
2023-07-17T03:11:39.740Z,22.56
2023-07-17T03:14:06.239Z,22.54
2023-07-17T03:16:32.768Z,22.53
2023-07-17T03:18:59.437Z,22.52
2023-07-17T03:21:26.013Z,22.52
2023-07-17T03:23:52.469Z,22.51
2023-07-17T03:26:18.942Z,22.50
2023-07-17T03:28:46.797Z,22.49
2023-07-17T03:31:14.143Z,22.48
2023-07-17T03:33:40.835Z,22.46
2023-07-17T03:36:07.786Z,22.45
2023-07-17T03:38:34.284Z,22.45
2023-07-17T03:41:00.658Z,22.44
2023-07-17T03:43:27.112Z,22.44
2023-07-17T03:45:53.644Z,22.43
2023-07-17T03:48:20.131Z,22.42
2023-07-17T03:50:48.790Z,22.44
2023-07-17T03:53:15.231Z,22.45
2023-07-17T03:55:41.691Z,22.46
2023-07-17T03:58:08.302Z,22.49
2023-07-17T04:00:34.800Z,22.49
2023-07-17T04:03:02.096Z,22.50
2023-07-17T04:05:28.685Z,22.50
2023-07-17T04:07:55.230Z,22.51
2023-07-17T04:10:21.714Z,22.51
2023-07-17T04:12:48.188Z,22.52
2023-07-17T04:15:14.640Z,22.50
2023-07-17T04:17:41.996Z,22.50
2023-07-17T04:20:10.949Z,22.49
2023-07-17T04:22:37.764Z,22.48
2023-07-17T04:25:05.464Z,22.48
2023-07-17T04:27:32.038Z,22.48
2023-07-17T04:29:58.541Z,22.46
2023-07-17T04:32:25.761Z,22.46
2023-07-17T04:34:52.367Z,22.47
2023-07-17T04:37:20.137Z,22.49
2023-07-17T04:39:46.732Z,22.51
2023-07-17T04:42:13.219Z,22.51
2023-07-17T04:44:39.718Z,22.52
2023-07-17T04:47:06.571Z,22.53
2023-07-17T04:49:33.152Z,22.53
2023-07-17T04:51:59.648Z,22.54
2023-07-17T04:54:26.088Z,22.55
2023-07-17T04:56:52.610Z,22.56
2023-07-17T04:59:19.049Z,22.57
2023-07-17T05:01:45.548Z,22.59
2023-07-17T05:04:12.157Z,22.58
2023-07-17T05:06:38.755Z,22.59
2023-07-17T05:09:05.245Z,22.58
2023-07-17T05:11:33.400Z,22.60
2023-07-17T05:13:59.819Z,22.60
2023-07-17T05:16:26.305Z,22.59
2023-07-17T05:18:52.821Z,22.60
2023-07-17T05:21:19.521Z,22.60
2023-07-17T05:23:46.333Z,22.60
2023-07-17T05:26:12.790Z,22.60
2023-07-17T05:28:39.341Z,22.60
2023-07-17T05:31:05.896Z,22.60
2023-07-17T05:33:32.510Z,22.60
2023-07-17T05:35:59.104Z,22.61
2023-07-17T05:38:25.591Z,22.62
2023-07-17T05:41:03.752Z,22.63
2023-07-17T05:43:33.873Z,22.63
2023-07-17T05:46:00.461Z,22.62
2023-07-17T05:48:26.975Z,22.62
2023-07-17T05:50:53.424Z,22.64
2023-07-17T05:53:19.943Z,22.63
2023-07-17T05:55:47.643Z,22.64
2023-07-17T05:58:14.150Z,22.63
2023-07-17T06:00:40.587Z,22.64
2023-07-17T06:03:07.235Z,22.64
2023-07-17T06:05:38.922Z,22.63
2023-07-17T06:08:06.576Z,22.63
2023-07-17T06:10:33.134Z,22.65
2023-07-17T06:12:59.620Z,22.67
2023-07-17T06:15:27.928Z,22.67
2023-07-17T06:17:54.429Z,22.68
2023-07-17T06:20:21.784Z,22.69
2023-07-17T06:22:49.054Z,22.71
2023-07-17T06:25:15.945Z,22.72
2023-07-17T06:27:42.440Z,22.72
2023-07-17T06:30:09.706Z,22.74
2023-07-17T06:32:36.458Z,22.79
2023-07-17T06:35:04.699Z,22.80
2023-07-17T06:37:31.189Z,22.80
2023-07-17T06:39:57.727Z,22.78
2023-07-17T06:42:24.222Z,22.79
2023-07-17T06:44:50.623Z,22.79
2023-07-17T06:47:29.795Z,22.80
2023-07-17T06:50:02.742Z,22.82
2023-07-17T06:52:29.271Z,22.84
2023-07-17T06:55:03.779Z,22.84
2023-07-17T06:57:32.179Z,22.83
2023-07-17T06:59:58.723Z,22.84
2023-07-17T07:02:25.334Z,22.86
2023-07-17T07:04:51.891Z,22.87
2023-07-17T07:07:19.264Z,22.88
2023-07-17T07:09:45.886Z,22.89
2023-07-17T07:12:12.386Z,22.90
2023-07-17T07:14:38.976Z,22.91
2023-07-17T07:17:05.640Z,22.93
2023-07-17T07:19:32.102Z,22.94
2023-07-17T07:21:58.509Z,22.96
2023-07-17T07:24:24.953Z,22.98
2023-07-17T07:26:51.421Z,22.99
2023-07-17T07:29:18.270Z,23.03
2023-07-17T07:31:44.849Z,23.03
2023-07-17T07:34:11.375Z,23.03
2023-07-17T07:36:37.986Z,23.05
2023-07-17T07:39:06.814Z,23.06
2023-07-17T07:41:34.093Z,23.07
2023-07-17T07:44:00.712Z,23.10
2023-07-17T07:46:27.263Z,23.12
2023-07-17T07:48:53.809Z,23.12
2023-07-17T07:51:20.298Z,23.13
2023-07-17T07:53:46.795Z,23.16
2023-07-17T07:56:13.261Z,23.18
2023-07-17T07:58:39.702Z,23.20
2023-07-17T08:01:06.138Z,23.20
2023-07-17T08:03:35.086Z,23.21
2023-07-17T08:06:01.643Z,23.23
2023-07-17T08:08:28.064Z,23.24
2023-07-17T08:10:55.096Z,23.27
2023-07-17T08:13:21.534Z,23.28
2023-07-17T08:15:48.914Z,23.29
2023-07-17T08:18:15.695Z,23.31
2023-07-17T08:20:42.331Z,23.33
2023-07-17T08:23:09.142Z,23.35
2023-07-17T08:25:35.569Z,23.36
2023-07-17T08:28:02.064Z,23.39
2023-07-17T08:30:28.573Z,23.42
2023-07-17T08:32:55.114Z,23.46
2023-07-17T08:35:21.610Z,23.48
2023-07-17T08:37:48.136Z,23.51
2023-07-17T08:40:14.526Z,23.54
2023-07-17T08:42:45.325Z,23.58
2023-07-17T08:45:13.981Z,23.59
2023-07-17T08:47:40.607Z,23.57
2023-07-17T08:50:08.510Z,23.54
2023-07-17T08:52:35.259Z,23.53
2023-07-17T08:55:02.141Z,23.52
2023-07-17T08:57:29.206Z,23.52
2023-07-17T08:59:56.558Z,23.55
2023-07-17T09:02:23.405Z,23.61
2023-07-17T09:04:49.857Z,23.67
2023-07-17T09:07:16.307Z,23.70
2023-07-17T09:09:42.777Z,23.70
2023-07-17T09:12:11.040Z,23.69
2023-07-17T09:14:38.670Z,23.67
2023-07-17T09:17:08.734Z,23.67
2023-07-17T09:19:36.529Z,23.66
2023-07-17T09:22:04.515Z,23.66
2023-07-17T09:24:34.411Z,23.66
2023-07-17T09:27:00.896Z,23.67
2023-07-17T09:29:27.374Z,23.69
2023-07-17T09:31:53.899Z,23.71
2023-07-17T09:34:20.349Z,23.74
2023-07-17T09:36:51.513Z,23.79
2023-07-17T09:39:18.224Z,23.81
2023-07-17T09:41:44.785Z,23.82
2023-07-17T09:44:18.494Z,23.82
2023-07-17T09:46:45.687Z,23.82
2023-07-17T09:49:12.261Z,23.82
2023-07-17T09:51:38.812Z,23.83
2023-07-17T09:54:06.221Z,23.84
2023-07-17T09:56:34.178Z,23.85
2023-07-17T09:59:28.738Z,23.84
2023-07-17T10:01:58.985Z,23.82
2023-07-17T10:04:32.275Z,23.80
2023-07-17T10:07:02.511Z,23.78
2023-07-17T10:09:30.745Z,23.76
2023-07-17T10:11:57.688Z,23.74
2023-07-17T10:14:25.735Z,23.76
2023-07-17T10:16:55.389Z,23.76
2023-07-17T10:19:21.943Z,23.77
2023-07-17T10:21:56.138Z,23.76
2023-07-17T10:24:26.012Z,23.77
2023-07-17T10:26:52.984Z,23.80
2023-07-17T10:29:33.302Z,23.88
2023-07-17T10:31:59.793Z,23.95
2023-07-17T10:34:51.542Z,23.94
2023-07-17T10:37:33.199Z,24.00
2023-07-17T10:40:07.754Z,24.05
2023-07-17T10:42:35.712Z,24.09
2023-07-17T10:45:12.145Z,24.10
2023-07-17T10:47:38.715Z,24.11
2023-07-17T10:50:06.292Z,24.10
2023-07-17T10:52:34.534Z,24.15
2023-07-17T10:55:05.752Z,24.20
2023-07-17T10:57:38.369Z,24.23
2023-07-17T11:00:06.036Z,24.30
2023-07-17T11:02:32.648Z,24.30
2023-07-17T11:05:02.526Z,24.27
2023-07-17T11:07:33.142Z,24.22
2023-07-17T11:09:59.618Z,24.21
2023-07-17T11:12:26.522Z,24.22
2023-07-17T11:14:53.816Z,24.21
2023-07-17T11:17:20.352Z,24.23
2023-07-17T11:19:47.232Z,24.24
2023-07-17T11:22:16.638Z,24.23
2023-07-17T11:24:43.099Z,24.22
2023-07-17T11:27:09.716Z,24.17
2023-07-17T11:29:43.395Z,24.13
2023-07-17T11:32:12.413Z,24.13
2023-07-17T11:34:38.861Z,24.16
2023-07-17T11:37:05.781Z,24.21
2023-07-17T11:39:35.184Z,24.19
2023-07-17T11:42:02.036Z,24.17
2023-07-17T11:44:33.529Z,24.17
2023-07-17T11:47:04.620Z,24.24
2023-07-17T11:49:31.873Z,24.27
2023-07-17T11:51:58.544Z,24.34
2023-07-17T11:54:37.057Z,24.42
2023-07-17T11:57:04.413Z,24.47
2023-07-17T11:59:32.602Z,24.57
2023-07-17T12:01:59.231Z,24.58
2023-07-17T12:04:27.954Z,24.57
2023-07-17T12:06:55.154Z,24.54
2023-07-17T12:09:22.625Z,24.43
2023-07-17T12:11:49.912Z,24.36
2023-07-17T12:14:17.972Z,24.31
2023-07-17T12:16:45.702Z,24.27
2023-07-17T12:19:12.429Z,24.22
2023-07-17T12:21:41.653Z,24.18
2023-07-17T12:24:09.540Z,24.16
2023-07-17T12:26:36.926Z,24.13
2023-07-17T12:29:04.532Z,24.12
2023-07-17T12:31:31.747Z,24.12
2023-07-17T12:33:58.334Z,24.11
2023-07-17T12:36:24.877Z,24.07
2023-07-17T12:38:51.314Z,24.06
2023-07-17T12:41:20.000Z,24.03
2023-07-17T12:43:46.790Z,24.02
2023-07-17T12:46:13.377Z,24.01
2023-07-17T12:48:40.030Z,24.04
2023-07-17T12:51:06.531Z,24.10
2023-07-17T12:53:34.110Z,24.13
2023-07-17T12:56:16.264Z,24.11
2023-07-17T12:58:46.548Z,24.09
2023-07-17T13:01:13.353Z,24.06
2023-07-17T13:03:40.010Z,24.04
2023-07-17T13:06:06.661Z,24.04
2023-07-17T13:08:33.156Z,24.05
2023-07-17T13:10:59.651Z,24.07
2023-07-17T13:13:26.149Z,24.12
2023-07-17T13:15:52.773Z,24.17
2023-07-17T13:18:19.506Z,24.18
2023-07-17T13:20:46.126Z,24.21
2023-07-17T13:23:12.860Z,24.24
2023-07-17T13:25:39.627Z,24.29
2023-07-17T13:28:06.154Z,24.33
2023-07-17T13:30:32.638Z,24.36
2023-07-17T13:32:59.146Z,24.38
2023-07-17T13:35:25.841Z,24.37
2023-07-17T13:37:52.277Z,24.34
2023-07-17T13:40:18.713Z,24.34
2023-07-17T13:42:45.199Z,24.33
2023-07-17T13:45:11.763Z,24.38
2023-07-17T13:47:38.382Z,24.43
2023-07-17T13:50:06.648Z,24.43
2023-07-17T13:52:33.179Z,24.41
2023-07-17T13:54:59.867Z,24.40
2023-07-17T13:57:26.446Z,24.45
2023-07-17T13:59:53.418Z,24.52
2023-07-17T14:02:20.638Z,24.56
2023-07-17T14:04:47.179Z,24.62
2023-07-17T14:07:13.674Z,24.66
2023-07-17T14:09:40.208Z,24.70
2023-07-17T14:12:07.211Z,24.71
2023-07-17T14:14:33.682Z,24.74
2023-07-17T14:17:00.247Z,24.77
2023-07-17T14:19:26.628Z,24.75
2023-07-17T14:21:53.087Z,24.69
2023-07-17T14:24:19.599Z,24.63
2023-07-17T14:26:46.068Z,24.58
2023-07-17T14:29:12.525Z,24.55
2023-07-17T14:31:39.071Z,24.53
2023-07-17T14:34:05.640Z,24.49
2023-07-17T14:36:32.298Z,24.46
2023-07-17T14:38:58.751Z,24.46
2023-07-17T14:41:25.532Z,24.46
2023-07-17T14:43:52.037Z,24.47
2023-07-17T14:46:18.925Z,24.46
2023-07-17T14:48:45.649Z,24.47
2023-07-17T14:51:12.112Z,24.46
2023-07-17T14:53:38.583Z,24.44
2023-07-17T14:56:05.359Z,24.40
2023-07-17T14:58:32.537Z,24.38
2023-07-17T15:00:59.091Z,24.39
2023-07-17T15:03:26.656Z,24.38
2023-07-17T15:05:53.339Z,24.37
2023-07-17T15:08:19.846Z,24.35
2023-07-17T15:10:46.466Z,24.36
2023-07-17T15:13:12.897Z,24.36
2023-07-17T15:15:39.436Z,24.35
2023-07-17T15:18:05.998Z,24.37
2023-07-17T15:20:32.556Z,24.39
2023-07-17T15:22:59.175Z,24.39
2023-07-17T15:25:25.688Z,24.39
2023-07-17T15:27:52.202Z,24.39
2023-07-17T15:30:18.793Z,24.38
2023-07-17T15:32:45.243Z,24.37
2023-07-17T15:35:12.563Z,24.39
2023-07-17T15:37:39.256Z,24.40
2023-07-17T15:40:07.897Z,24.44
2023-07-17T15:42:34.509Z,24.48
2023-07-17T15:45:04.007Z,24.50
2023-07-17T15:47:30.583Z,24.49
2023-07-17T15:49:57.196Z,24.49
2023-07-17T15:52:23.779Z,24.52
2023-07-17T15:54:50.219Z,24.55
2023-07-17T15:57:16.684Z,24.59
2023-07-17T15:59:43.154Z,24.62
2023-07-17T16:02:09.965Z,24.61
2023-07-17T16:04:36.462Z,24.60
2023-07-17T16:07:02.892Z,24.60
2023-07-17T16:09:30.619Z,24.59
2023-07-17T16:11:57.073Z,24.61
2023-07-17T16:14:23.464Z,24.59
2023-07-17T16:16:49.922Z,24.61
2023-07-17T16:19:16.393Z,24.57
2023-07-17T16:21:42.895Z,24.56
2023-07-17T16:24:09.442Z,24.56
2023-07-17T16:26:35.914Z,24.55
2023-07-17T16:29:02.372Z,24.54
2023-07-17T16:31:29.184Z,24.54
2023-07-17T16:33:55.709Z,24.55
2023-07-17T16:36:28.230Z,24.53
2023-07-17T16:38:54.735Z,24.51
2023-07-17T16:41:21.164Z,24.49
2023-07-17T16:43:50.722Z,24.46
2023-07-17T16:46:20.839Z,24.48
2023-07-17T16:48:47.557Z,24.48
2023-07-17T16:51:13.991Z,24.47
2023-07-17T16:53:41.266Z,24.46
2023-07-17T16:56:07.729Z,24.44
2023-07-17T16:58:37.436Z,24.43
2023-07-17T17:01:04.847Z,24.41
2023-07-17T17:03:31.452Z,24.41
2023-07-17T17:05:57.964Z,24.37
2023-07-17T17:08:24.508Z,24.35
2023-07-17T17:10:51.661Z,24.34
2023-07-17T17:13:18.470Z,24.31
2023-07-17T17:15:46.092Z,24.30
2023-07-17T17:18:12.956Z,24.30
2023-07-17T17:20:39.895Z,24.28
2023-07-17T17:23:08.512Z,24.27
2023-07-17T17:25:40.462Z,24.25
2023-07-17T17:28:08.200Z,24.24
2023-07-17T17:30:35.420Z,24.23
2023-07-17T17:33:02.700Z,24.22
2023-07-17T17:35:29.251Z,24.21
2023-07-17T17:37:55.695Z,24.20
2023-07-17T17:40:22.141Z,24.19
2023-07-17T17:42:48.623Z,24.18
2023-07-17T17:45:15.836Z,24.18
2023-07-17T17:47:42.495Z,24.15
2023-07-17T17:50:09.407Z,24.13
2023-07-17T17:52:35.974Z,24.13
2023-07-17T17:55:02.532Z,24.12
2023-07-17T17:57:29.073Z,24.11
2023-07-17T17:59:55.541Z,24.09
2023-07-17T18:02:22.097Z,24.07
2023-07-17T18:04:48.590Z,24.05
2023-07-17T18:07:15.122Z,24.05
2023-07-17T18:09:41.553Z,24.04
2023-07-17T18:12:08.386Z,24.04
2023-07-17T18:14:34.894Z,24.03
2023-07-17T18:17:01.467Z,24.02
2023-07-17T18:19:35.816Z,24.00
2023-07-17T18:22:02.233Z,24.00
2023-07-17T18:24:29.162Z,23.99
2023-07-17T18:26:55.634Z,23.97
2023-07-17T18:29:22.112Z,23.96
2023-07-17T18:31:49.015Z,23.97
2023-07-17T18:34:15.436Z,23.96
2023-07-17T18:36:42.091Z,23.95
2023-07-17T18:39:08.615Z,23.93
2023-07-17T18:41:35.070Z,23.91
2023-07-17T18:44:08.793Z,23.90
2023-07-17T18:46:35.332Z,23.89
2023-07-17T18:49:11.220Z,23.87
2023-07-17T18:51:40.803Z,23.87
2023-07-17T18:54:08.258Z,23.86
2023-07-17T18:56:37.765Z,23.85
2023-07-17T18:59:17.541Z,23.83
2023-07-17T19:01:45.950Z,23.82
2023-07-17T19:04:12.904Z,23.81
2023-07-17T19:06:39.622Z,23.78
2023-07-17T19:09:07.250Z,23.77
2023-07-17T19:11:33.938Z,23.76
2023-07-17T19:14:00.607Z,23.74
2023-07-17T19:16:27.233Z,23.74
2023-07-17T19:18:53.807Z,23.73
2023-07-17T19:21:20.697Z,23.72
2023-07-17T19:23:49.480Z,23.72
2023-07-17T19:26:17.203Z,23.70
2023-07-17T19:28:44.388Z,23.70
2023-07-17T19:31:11.585Z,23.68
2023-07-17T19:33:38.140Z,23.67
2023-07-17T19:36:07.605Z,23.66
2023-07-17T19:38:34.031Z,23.64
2023-07-17T19:41:03.486Z,23.64
2023-07-17T19:43:30.094Z,23.62
2023-07-17T19:45:56.757Z,23.60
2023-07-17T19:48:26.320Z,23.59
2023-07-17T19:50:52.825Z,23.59
2023-07-17T19:53:20.821Z,23.57
2023-07-17T19:55:47.318Z,23.56
2023-07-17T19:58:13.918Z,23.54
2023-07-17T20:00:40.454Z,23.53
2023-07-17T20:03:07.055Z,23.52
2023-07-17T20:05:33.605Z,23.51
2023-07-17T20:08:00.118Z,23.49
2023-07-17T20:10:26.543Z,23.48
2023-07-17T20:12:53.021Z,23.47
2023-07-17T20:15:21.052Z,23.46
2023-07-17T20:17:49.017Z,23.44
2023-07-17T20:22:48.241Z,23.41
2023-07-17T20:25:14.872Z,23.41
2023-07-17T20:27:42.616Z,23.39
2023-07-17T20:30:13.694Z,23.38
2023-07-17T20:32:40.695Z,23.37
2023-07-17T20:35:21.273Z,23.36
2023-07-17T20:37:53.593Z,23.35
2023-07-17T20:40:20.134Z,23.33
2023-07-17T20:42:49.446Z,23.31
2023-07-17T20:45:30.866Z,23.30
2023-07-17T20:48:15.941Z,23.29
2023-07-17T20:51:04.992Z,23.26
2023-07-17T20:53:34.353Z,23.26
2023-07-17T20:56:00.966Z,23.24
2023-07-17T20:58:27.649Z,23.23
2023-07-17T21:01:01.969Z,23.21
2023-07-17T21:03:29.203Z,23.20
2023-07-17T21:05:55.769Z,23.19
2023-07-17T21:08:26.853Z,23.19
2023-07-17T21:10:56.990Z,23.17
2023-07-17T21:13:25.448Z,23.16
2023-07-17T21:15:54.662Z,23.15
2023-07-17T21:18:21.700Z,23.15
2023-07-17T21:20:48.190Z,23.13
2023-07-17T21:23:16.747Z,23.14
2023-07-17T21:25:43.937Z,23.13
2023-07-17T21:28:11.276Z,23.14
2023-07-17T21:30:37.958Z,23.13
2023-07-17T21:33:05.264Z,23.13
2023-07-17T21:35:31.855Z,23.11
2023-07-17T21:37:58.385Z,23.11
2023-07-17T21:40:25.384Z,23.09
2023-07-17T21:42:51.885Z,23.08
2023-07-17T21:45:18.564Z,23.07
2023-07-17T21:47:45.082Z,23.07
2023-07-17T21:50:11.850Z,23.06
2023-07-17T21:52:38.614Z,23.05
2023-07-17T21:55:11.898Z,23.04
2023-07-17T21:57:39.845Z,23.02
2023-07-17T22:00:07.672Z,23.01
2023-07-17T22:02:34.206Z,23.02
2023-07-17T22:05:00.920Z,23.01
2023-07-17T22:07:27.411Z,23.00
2023-07-17T22:09:53.845Z,22.98
2023-07-17T22:12:20.273Z,22.98
2023-07-17T22:14:47.581Z,22.97
2023-07-17T22:17:21.416Z,22.95
2023-07-17T22:19:50.218Z,22.95
2023-07-17T22:22:16.721Z,22.94
2023-07-17T22:24:43.361Z,22.93
2023-07-17T22:27:09.776Z,22.92
2023-07-17T22:29:36.229Z,22.91
2023-07-17T22:32:03.178Z,22.91
2023-07-17T22:34:29.606Z,22.89
2023-07-17T22:36:56.056Z,22.89
2023-07-17T22:39:22.536Z,22.88
2023-07-17T22:41:48.988Z,22.87
2023-07-17T22:44:17.016Z,22.86
2023-07-17T22:46:43.716Z,22.85
2023-07-17T22:49:10.841Z,22.85
2023-07-17T22:51:38.650Z,22.81
2023-07-17T22:54:05.786Z,22.81
2023-07-17T22:56:32.792Z,22.80
2023-07-17T22:58:59.332Z,22.80
2023-07-17T23:01:25.914Z,22.79
2023-07-17T23:03:52.445Z,22.77
2023-07-17T23:06:18.930Z,22.76
2023-07-17T23:08:45.433Z,22.76
2023-07-17T23:11:11.836Z,22.75
2023-07-17T23:13:38.378Z,22.75
2023-07-17T23:16:07.052Z,22.73
2023-07-17T23:18:33.567Z,22.72
2023-07-17T23:21:00.040Z,22.72
2023-07-17T23:23:26.479Z,22.71
2023-07-17T23:25:52.937Z,22.70
2023-07-17T23:28:19.431Z,22.69
2023-07-17T23:30:45.903Z,22.69
2023-07-17T23:33:12.341Z,22.68
2023-07-17T23:35:40.711Z,22.67
2023-07-17T23:38:07.120Z,22.66
2023-07-17T23:40:33.498Z,22.66
2023-07-17T23:43:01.456Z,22.65
2023-07-17T23:45:27.926Z,22.64
2023-07-17T23:47:58.264Z,22.64
2023-07-17T23:50:25.188Z,22.65
2023-07-17T23:52:52.157Z,22.62
2023-07-17T23:55:18.751Z,22.62
2023-07-17T23:57:46.236Z,22.60
